createdAt,value
2023-03-19T00:00:29.027Z,2.79
2023-03-19T00:02:56.189Z,2.74
2023-03-19T00:05:22.927Z,2.48
2023-03-19T00:07:49.496Z,3.08
2023-03-19T00:10:16.149Z,3.06
2023-03-19T00:12:42.809Z,2.98
2023-03-19T00:15:14.096Z,3.12
2023-03-19T00:17:44.062Z,2.85
2023-03-19T00:20:12.844Z,3.68
2023-03-19T00:22:40.288Z,3.53
2023-03-19T00:25:08.574Z,3.69
2023-03-19T00:27:37.287Z,3.49
2023-03-19T00:30:06.154Z,3.40
2023-03-19T00:32:33.981Z,3.34
2023-03-19T00:35:00.689Z,3.66
2023-03-19T00:37:27.750Z,3.79
2023-03-19T00:39:54.404Z,3.64
2023-03-19T00:42:21.287Z,3.87
2023-03-19T00:44:47.844Z,3.61
2023-03-19T00:47:14.468Z,3.53
2023-03-19T00:49:41.031Z,3.66
2023-03-19T00:52:08.338Z,3.65
2023-03-19T00:54:34.973Z,3.69
2023-03-19T00:57:01.739Z,3.69
2023-03-19T00:59:28.378Z,3.90
2023-03-19T01:01:55.201Z,3.97
2023-03-19T01:04:23.234Z,4.14
2023-03-19T01:06:50.104Z,4.11
2023-03-19T01:09:16.784Z,4.12
2023-03-19T01:11:43.819Z,4.13
2023-03-19T01:14:10.631Z,4.34
2023-03-19T01:16:37.200Z,4.16
2023-03-19T01:19:04.210Z,4.27
2023-03-19T01:21:31.140Z,4.20
2023-03-19T01:23:58.875Z,4.22
2023-03-19T01:26:26.089Z,4.41
2023-03-19T01:28:53.399Z,4.67
2023-03-19T01:31:20.167Z,4.25
2023-03-19T01:33:47.660Z,4.56
2023-03-19T01:36:14.384Z,4.21
2023-03-19T01:38:41.199Z,4.77
2023-03-19T01:41:07.936Z,4.55
2023-03-19T01:43:34.545Z,5.02
2023-03-19T01:46:29.144Z,5.24
2023-03-19T01:49:00.554Z,5.13
2023-03-19T01:51:33.685Z,5.52
2023-03-19T01:54:05.184Z,5.34
2023-03-19T01:56:38.355Z,5.09
2023-03-19T01:59:14.828Z,5.64
2023-03-19T02:01:52.170Z,5.56
2023-03-19T02:04:19.355Z,5.43
2023-03-19T02:06:46.976Z,5.36
2023-03-19T02:09:15.190Z,5.60
2023-03-19T02:11:42.086Z,5.65
2023-03-19T02:14:10.060Z,5.62
2023-03-19T02:16:36.744Z,5.63
2023-03-19T02:19:04.918Z,5.77
2023-03-19T02:21:32.389Z,5.41
2023-03-19T02:24:06.576Z,5.31
2023-03-19T02:26:33.770Z,5.49
2023-03-19T02:29:00.635Z,5.51
2023-03-19T02:31:28.038Z,5.50
2023-03-19T02:34:03.948Z,5.73
2023-03-19T02:36:38.652Z,5.64
2023-03-19T02:39:11.012Z,6.05
2023-03-19T02:41:41.992Z,6.03
2023-03-19T02:44:12.098Z,5.72
2023-03-19T02:46:38.763Z,5.72
2023-03-19T02:49:05.552Z,5.68
2023-03-19T02:51:32.454Z,5.79
2023-03-19T02:54:00.865Z,5.93
2023-03-19T02:56:27.672Z,5.88
2023-03-19T02:58:54.278Z,6.32
2023-03-19T03:01:20.992Z,6.36
2023-03-19T03:03:47.662Z,6.32
2023-03-19T03:06:14.291Z,6.28
2023-03-19T03:08:41.269Z,6.61
2023-03-19T03:11:07.838Z,6.53
2023-03-19T03:13:34.463Z,7.12
2023-03-19T03:16:01.140Z,7.06
2023-03-19T03:18:28.153Z,7.03
2023-03-19T03:20:54.770Z,7.38
2023-03-19T03:23:22.031Z,7.08
2023-03-19T03:25:50.636Z,7.56
2023-03-19T03:28:17.870Z,8.25
2023-03-19T03:30:45.049Z,9.16
2023-03-19T03:33:12.100Z,8.98
2023-03-19T03:35:38.880Z,9.42
2023-03-19T03:38:06.692Z,9.78
2023-03-19T03:40:34.406Z,9.74
2023-03-19T03:43:01.337Z,9.88
2023-03-19T03:45:27.971Z,10.10
2023-03-19T03:47:54.644Z,10.61
2023-03-19T03:50:21.685Z,10.59
2023-03-19T03:52:48.263Z,10.97
2023-03-19T03:55:15.222Z,11.08
2023-03-19T03:57:41.788Z,12.19
2023-03-19T04:00:09.189Z,12.09
2023-03-19T04:02:35.824Z,12.05
2023-03-19T04:05:02.457Z,12.04
2023-03-19T04:07:29.007Z,12.35
2023-03-19T04:09:58.312Z,12.46
2023-03-19T04:12:25.011Z,13.07
2023-03-19T04:14:52.056Z,12.39
2023-03-19T04:17:18.620Z,13.15
2023-03-19T04:19:47.041Z,13.75
2023-03-19T04:22:14.034Z,13.84
2023-03-19T04:24:41.301Z,14.18
2023-03-19T04:27:08.372Z,13.99
2023-03-19T04:29:34.944Z,13.89
2023-03-19T04:32:01.611Z,14.54
2023-03-19T04:34:28.321Z,13.88
2023-03-19T04:36:54.970Z,14.27
2023-03-19T04:39:21.558Z,13.16
2023-03-19T04:41:48.203Z,13.92
2023-03-19T04:44:14.811Z,13.95
2023-03-19T04:46:42.001Z,13.64
2023-03-19T04:49:09.203Z,13.92
2023-03-19T04:51:35.818Z,14.26
2023-03-19T04:54:02.443Z,14.34
2023-03-19T04:56:29.102Z,14.43
2023-03-19T04:58:55.702Z,14.61
2023-03-19T05:01:22.472Z,14.64
2023-03-19T05:03:49.669Z,14.60
2023-03-19T05:06:17.275Z,14.55
2023-03-19T05:08:43.925Z,15.13
2023-03-19T05:11:10.700Z,15.83
2023-03-19T05:13:37.378Z,15.55
2023-03-19T05:16:04.395Z,15.61
2023-03-19T05:18:31.030Z,15.78
2023-03-19T05:20:57.728Z,15.71
2023-03-19T05:23:24.344Z,16.27
2023-03-19T05:25:51.018Z,16.10
2023-03-19T05:28:18.804Z,16.11
2023-03-19T05:30:45.522Z,15.34
2023-03-19T05:33:12.630Z,15.85
2023-03-19T05:35:39.603Z,15.28
2023-03-19T05:38:06.483Z,14.84
2023-03-19T05:40:35.040Z,15.02
2023-03-19T05:43:02.039Z,16.07
2023-03-19T05:45:28.786Z,16.00
2023-03-19T05:47:55.414Z,15.09
2023-03-19T05:50:22.122Z,15.28
2023-03-19T05:52:48.801Z,15.80
2023-03-19T05:55:15.584Z,15.60
2023-03-19T05:57:42.403Z,16.00
2023-03-19T06:00:10.587Z,15.74
2023-03-19T06:02:37.763Z,15.93
2023-03-19T06:05:06.282Z,15.36
2023-03-19T06:07:32.904Z,16.55
2023-03-19T06:09:59.580Z,16.82
2023-03-19T06:12:26.371Z,16.94
2023-03-19T06:14:53.037Z,17.45
2023-03-19T06:17:19.966Z,17.42
2023-03-19T06:19:46.583Z,18.29
2023-03-19T06:22:13.227Z,17.71
2023-03-19T06:24:40.073Z,18.26
2023-03-19T06:27:06.747Z,18.31
2023-03-19T06:29:33.336Z,17.71
2023-03-19T06:32:00.424Z,18.30
2023-03-19T06:34:27.565Z,17.75
2023-03-19T06:36:54.225Z,17.89
2023-03-19T06:39:21.606Z,17.42
2023-03-19T06:41:48.294Z,17.99
2023-03-19T06:44:15.031Z,17.85
2023-03-19T06:46:41.684Z,17.97
2023-03-19T06:49:08.266Z,17.28
2023-03-19T06:51:34.908Z,17.24
2023-03-19T06:54:01.658Z,16.53
2023-03-19T06:56:29.379Z,16.77
2023-03-19T06:58:56.461Z,16.45
2023-03-19T07:01:23.131Z,16.91
2023-03-19T07:03:50.003Z,17.74
2023-03-19T07:06:16.662Z,17.52
2023-03-19T07:08:46.392Z,18.54
2023-03-19T07:11:14.770Z,17.66
2023-03-19T07:13:41.569Z,18.58
2023-03-19T07:16:08.837Z,18.63
2023-03-19T07:18:35.929Z,18.67
2023-03-19T07:21:02.654Z,19.39
2023-03-19T07:23:29.256Z,19.68
2023-03-19T07:25:55.918Z,20.91
2023-03-19T07:28:23.049Z,20.29
2023-03-19T07:30:52.873Z,21.44
2023-03-19T07:33:20.206Z,23.41
2023-03-19T07:35:46.954Z,23.38
2023-03-19T07:38:14.676Z,24.47
2023-03-19T07:40:45.538Z,24.06
2023-03-19T07:43:18.086Z,23.62
2023-03-19T07:45:44.821Z,24.83
2023-03-19T07:48:12.540Z,24.60
2023-03-19T07:50:39.246Z,24.64
2023-03-19T07:53:06.371Z,25.82
2023-03-19T07:55:33.097Z,24.51
2023-03-19T07:57:59.998Z,25.24
2023-03-19T08:00:27.363Z,26.68
2023-03-19T08:02:53.995Z,27.15
2023-03-19T08:05:20.637Z,28.78
2023-03-19T08:07:49.495Z,27.93
2023-03-19T08:10:16.366Z,26.64
2023-03-19T08:12:42.976Z,25.38
2023-03-19T08:15:11.683Z,26.38
2023-03-19T08:17:38.937Z,26.49
2023-03-19T08:20:08.431Z,24.10
2023-03-19T08:22:39.575Z,26.28
2023-03-19T08:25:07.561Z,25.69
2023-03-19T08:27:36.055Z,27.17
2023-03-19T08:30:05.669Z,26.12
2023-03-19T08:32:32.268Z,25.15
2023-03-19T08:34:58.863Z,26.12
2023-03-19T08:37:25.622Z,25.12
2023-03-19T08:39:52.995Z,24.80
2023-03-19T08:42:20.365Z,25.90
2023-03-19T08:44:47.355Z,25.26
2023-03-19T08:47:14.014Z,25.20
2023-03-19T08:49:40.898Z,25.82
2023-03-19T08:52:07.660Z,26.93
2023-03-19T08:54:34.765Z,26.59
2023-03-19T08:57:01.562Z,25.59
2023-03-19T08:59:28.407Z,25.83
2023-03-19T09:01:55.581Z,25.07
2023-03-19T09:04:22.301Z,25.35
2023-03-19T09:06:52.288Z,26.05
2023-03-19T09:09:21.108Z,26.15
2023-03-19T09:11:48.896Z,25.70
2023-03-19T09:14:17.865Z,25.33
2023-03-19T09:16:44.487Z,24.24
2023-03-19T09:19:11.202Z,24.64
2023-03-19T09:21:37.928Z,23.47
2023-03-19T09:24:05.323Z,23.97
2023-03-19T09:26:31.984Z,23.27
2023-03-19T09:28:59.244Z,22.19
2023-03-19T09:31:28.418Z,22.17
2023-03-19T09:33:56.181Z,20.80
2023-03-19T09:36:22.755Z,20.80
2023-03-19T09:38:50.137Z,20.40
2023-03-19T09:41:47.737Z,21.79
2023-03-19T09:44:34.634Z,21.87
2023-03-19T09:47:23.951Z,21.37
2023-03-19T09:49:52.678Z,20.91
2023-03-19T09:52:19.236Z,21.36
2023-03-19T09:54:48.993Z,20.66
2023-03-19T09:57:17.460Z,19.61
2023-03-19T09:59:44.367Z,20.75
2023-03-19T10:02:32.178Z,19.90
2023-03-19T10:05:43.488Z,20.81
2023-03-19T10:08:21.930Z,18.88
2023-03-19T10:10:58.399Z,19.55
2023-03-19T10:13:32.319Z,19.60
2023-03-19T10:16:01.851Z,20.22
2023-03-19T10:18:32.924Z,21.27
2023-03-19T10:21:19.449Z,22.74
2023-03-19T10:23:54.527Z,22.68
2023-03-19T10:26:28.145Z,23.41
2023-03-19T10:29:01.758Z,21.83
2023-03-19T10:31:39.063Z,22.79
2023-03-19T10:34:21.862Z,21.31
2023-03-19T10:36:48.509Z,21.07
2023-03-19T10:39:18.678Z,20.88
2023-03-19T10:42:25.665Z,21.60
2023-03-19T10:45:15.598Z,21.56
2023-03-19T10:47:43.455Z,21.72
2023-03-19T10:50:20.069Z,22.51
2023-03-19T10:52:52.253Z,21.28
2023-03-19T10:55:25.970Z,23.07
2023-03-19T10:58:03.546Z,22.44
2023-03-19T11:00:33.351Z,22.79
2023-03-19T11:03:04.092Z,23.32
2023-03-19T11:05:34.958Z,23.56
2023-03-19T11:08:25.741Z,22.07
2023-03-19T11:11:01.808Z,21.59
2023-03-19T11:13:28.686Z,21.21
2023-03-19T11:16:00.260Z,23.42
2023-03-19T11:18:40.007Z,24.02
2023-03-19T11:21:28.762Z,21.89
2023-03-19T11:24:03.829Z,19.31
2023-03-19T11:26:31.336Z,17.89
2023-03-19T11:29:04.515Z,18.73
2023-03-19T11:31:40.613Z,18.87
2023-03-19T11:34:34.021Z,17.30
2023-03-19T11:37:14.026Z,17.29
2023-03-19T11:40:11.937Z,18.02
2023-03-19T11:42:54.009Z,18.31
2023-03-19T11:45:55.951Z,19.13
2023-03-19T11:49:03.306Z,19.58
2023-03-19T11:51:48.098Z,18.82
2023-03-19T11:54:27.145Z,18.54
2023-03-19T11:57:17.140Z,16.90
2023-03-19T12:00:01.969Z,18.19
2023-03-19T12:02:59.754Z,19.00
2023-03-19T12:05:42.542Z,19.16
2023-03-19T12:08:14.910Z,20.08
2023-03-19T12:11:01.639Z,21.10
2023-03-19T12:14:09.569Z,21.76
2023-03-19T12:17:04.363Z,22.17
2023-03-19T12:19:55.331Z,21.27
2023-03-19T12:22:47.282Z,22.00
2023-03-19T12:25:53.082Z,20.74
2023-03-19T12:28:22.594Z,21.51
2023-03-19T12:31:10.448Z,20.90
2023-03-19T12:33:49.176Z,21.00
2023-03-19T12:36:23.531Z,19.04
2023-03-19T12:38:58.242Z,17.22
2023-03-19T12:41:28.346Z,18.48
2023-03-19T12:44:04.572Z,18.00
2023-03-19T12:46:42.953Z,18.06
2023-03-19T12:49:17.691Z,17.60
2023-03-19T12:52:08.733Z,17.29
2023-03-19T12:54:51.862Z,17.26
2023-03-19T12:57:33.663Z,17.64
2023-03-19T13:00:13.954Z,17.02
2023-03-19T13:03:01.556Z,16.61
2023-03-19T13:05:59.506Z,16.75
2023-03-19T13:08:33.462Z,16.56
2023-03-19T13:11:05.213Z,16.20
2023-03-19T13:13:46.462Z,16.87
2023-03-19T13:16:32.393Z,17.02
2023-03-19T13:19:18.106Z,15.71
2023-03-19T13:21:49.269Z,15.61
2023-03-19T13:24:28.317Z,15.81
2023-03-19T13:26:59.243Z,16.15
2023-03-19T13:29:31.748Z,16.25
2023-03-19T13:32:05.615Z,15.19
2023-03-19T13:34:35.883Z,15.39
2023-03-19T13:37:02.766Z,15.28
2023-03-19T13:39:33.939Z,14.05
2023-03-19T13:42:06.577Z,14.16
2023-03-19T13:44:51.472Z,13.96
2023-03-19T13:47:28.650Z,15.22
2023-03-19T13:50:16.228Z,16.05
2023-03-19T13:52:49.738Z,15.51
2023-03-19T13:55:28.411Z,15.03
2023-03-19T13:58:12.371Z,15.30
2023-03-19T14:00:42.835Z,14.91
2023-03-19T14:03:25.310Z,15.17
2023-03-19T14:05:56.424Z,16.51
2023-03-19T14:08:27.511Z,16.03
2023-03-19T14:11:00.264Z,15.79
2023-03-19T14:13:48.786Z,15.53
2023-03-19T14:16:18.296Z,15.26
2023-03-19T14:18:45.748Z,15.08
2023-03-19T14:21:30.962Z,14.47
2023-03-19T14:24:55.383Z,13.96
2023-03-19T14:27:25.289Z,14.85
2023-03-19T14:29:55.611Z,14.75
2023-03-19T14:32:40.855Z,14.91
2023-03-19T14:35:14.838Z,14.74
2023-03-19T14:37:49.827Z,14.71
2023-03-19T14:40:31.617Z,13.69
2023-03-19T14:43:36.682Z,13.81
2023-03-19T14:46:05.215Z,13.88
2023-03-19T14:49:21.381Z,13.62
2023-03-19T14:52:31.891Z,13.94
2023-03-19T14:54:58.454Z,13.48
2023-03-19T14:57:35.539Z,12.89
2023-03-19T15:00:07.177Z,14.21
2023-03-19T15:02:49.324Z,13.93
2023-03-19T15:05:29.614Z,13.75
2023-03-19T15:08:11.492Z,13.97
2023-03-19T15:11:07.092Z,13.67
2023-03-19T15:13:33.729Z,14.92
2023-03-19T15:16:17.293Z,14.11
2023-03-19T15:18:44.009Z,14.44
2023-03-19T15:21:10.798Z,15.09
2023-03-19T15:23:41.037Z,13.63
2023-03-19T15:26:11.589Z,12.76
2023-03-19T15:28:49.405Z,12.62
2023-03-19T15:31:31.838Z,12.84
2023-03-19T15:34:17.837Z,13.24
2023-03-19T15:36:46.357Z,13.03
2023-03-19T15:39:18.271Z,13.56
2023-03-19T15:41:49.726Z,13.13
2023-03-19T15:44:38.479Z,13.78
2023-03-19T15:47:11.741Z,13.70
2023-03-19T15:49:44.028Z,14.54
2023-03-19T15:52:19.382Z,13.89
2023-03-19T15:54:46.530Z,14.41
2023-03-19T15:57:17.708Z,13.47
2023-03-19T15:59:45.940Z,13.00
2023-03-19T16:02:29.539Z,13.09
2023-03-19T16:05:20.879Z,13.36
2023-03-19T16:07:44.750Z,13.70
2023-03-19T16:10:35.361Z,13.56
2023-03-19T16:13:18.553Z,14.17
2023-03-19T16:15:47.907Z,14.31
2023-03-19T16:18:20.515Z,14.24
2023-03-19T16:21:02.422Z,14.63
2023-03-19T16:23:40.568Z,14.99
2023-03-19T16:26:21.769Z,17.09
2023-03-19T16:29:20.161Z,16.78
2023-03-19T16:31:51.920Z,17.03
2023-03-19T16:34:46.734Z,17.69
2023-03-19T16:37:43.849Z,17.92
2023-03-19T16:40:13.447Z,17.72
2023-03-19T16:42:41.048Z,17.83
2023-03-19T16:45:29.880Z,19.13
2023-03-19T16:48:03.483Z,19.28
2023-03-19T16:50:35.042Z,19.73
2023-03-19T16:53:04.374Z,20.44
2023-03-19T16:55:37.459Z,20.34
2023-03-19T16:58:18.001Z,21.57
2023-03-19T17:00:45.799Z,22.22
2023-03-19T17:03:15.646Z,21.95
2023-03-19T17:05:43.442Z,22.62
2023-03-19T17:08:11.643Z,21.99
2023-03-19T17:10:51.904Z,22.19
2023-03-19T17:13:22.795Z,22.79
2023-03-19T17:15:51.266Z,22.82
2023-03-19T17:18:24.917Z,24.19
2023-03-19T17:21:07.970Z,24.07
2023-03-19T17:23:35.051Z,23.75
2023-03-19T17:26:03.051Z,24.52
2023-03-19T17:28:32.376Z,23.07
2023-03-19T17:30:59.269Z,22.79
2023-03-19T17:33:29.144Z,24.91
2023-03-19T17:35:58.104Z,25.48
2023-03-19T17:38:33.820Z,24.98
2023-03-19T17:41:00.450Z,24.90
2023-03-19T17:43:27.114Z,25.39
2023-03-19T17:45:55.515Z,24.00
2023-03-19T17:48:26.215Z,23.34
2023-03-19T17:50:59.980Z,24.58
2023-03-19T17:53:26.920Z,24.67
2023-03-19T17:55:53.531Z,24.49
2023-03-19T17:58:22.629Z,24.00
2023-03-19T18:00:51.325Z,23.88
2023-03-19T18:03:21.444Z,23.61
2023-03-19T18:05:50.470Z,23.50
2023-03-19T18:08:20.897Z,23.72
2023-03-19T18:10:47.742Z,24.11
2023-03-19T18:13:14.510Z,24.49
2023-03-19T18:15:44.039Z,24.57
2023-03-19T18:18:18.720Z,24.53
2023-03-19T18:20:47.450Z,24.42
2023-03-19T18:23:18.149Z,24.70
2023-03-19T18:25:46.215Z,24.67
2023-03-19T18:28:13.020Z,25.17
2023-03-19T18:30:41.762Z,24.38
2023-03-19T18:33:16.472Z,25.17
2023-03-19T18:35:45.502Z,26.04
2023-03-19T18:38:19.389Z,25.46
2023-03-19T18:40:47.282Z,25.03
2023-03-19T18:43:16.066Z,24.80
2023-03-19T18:45:45.680Z,25.24
2023-03-19T18:48:24.265Z,25.64
2023-03-19T18:50:52.244Z,25.89
2023-03-19T18:53:19.068Z,25.27
2023-03-19T18:55:46.945Z,25.74
2023-03-19T18:58:26.541Z,25.94
2023-03-19T19:00:54.096Z,25.56
2023-03-19T19:03:28.529Z,24.85
2023-03-19T19:05:56.141Z,24.94
2023-03-19T19:08:25.268Z,25.42
2023-03-19T19:10:56.715Z,24.70
2023-03-19T19:13:27.234Z,24.23
2023-03-19T19:15:54.280Z,22.21
2023-03-19T19:18:24.640Z,21.83
2023-03-19T19:20:53.910Z,21.80
2023-03-19T19:23:22.527Z,22.31
2023-03-19T19:25:55.222Z,21.28
2023-03-19T19:28:27.583Z,21.16
2023-03-19T19:30:57.355Z,20.86
2023-03-19T19:33:27.972Z,20.73
2023-03-19T19:35:55.519Z,21.64
2023-03-19T19:38:22.164Z,20.66
2023-03-19T19:40:52.238Z,19.63
2023-03-19T19:43:31.260Z,19.52
2023-03-19T19:45:59.157Z,19.20
2023-03-19T19:48:30.472Z,19.83
2023-03-19T19:50:58.017Z,19.32
2023-03-19T19:53:26.193Z,20.35
2023-03-19T19:55:53.747Z,21.57
2023-03-19T19:58:32.341Z,21.21
2023-03-19T20:01:04.278Z,20.74
2023-03-19T20:03:33.928Z,20.08
2023-03-19T20:06:01.871Z,19.78
2023-03-19T20:08:28.836Z,19.15
2023-03-19T20:10:56.911Z,18.62
2023-03-19T20:13:29.571Z,17.98
2023-03-19T20:15:58.728Z,16.84
2023-03-19T20:18:30.776Z,15.44
2023-03-19T20:20:59.483Z,15.22
2023-03-19T20:23:26.609Z,14.97
2023-03-19T20:25:53.677Z,14.24
2023-03-19T20:28:30.506Z,14.81
2023-03-19T20:30:57.261Z,15.20
2023-03-19T20:33:24.456Z,16.11
2023-03-19T20:35:52.052Z,15.92
2023-03-19T20:38:18.736Z,15.70
2023-03-19T20:40:49.734Z,17.51
2023-03-19T20:43:29.189Z,19.08
2023-03-19T20:45:58.161Z,19.05
2023-03-19T20:48:26.507Z,19.98
2023-03-19T20:50:54.551Z,21.53
2023-03-19T20:53:21.559Z,22.33
2023-03-19T20:55:49.244Z,21.52
2023-03-19T20:58:29.050Z,21.83
2023-03-19T21:00:57.869Z,20.77
2023-03-19T21:03:30.365Z,20.57
2023-03-19T21:06:06.657Z,19.64
2023-03-19T21:08:56.981Z,19.53
2023-03-19T21:11:36.988Z,18.78
2023-03-19T21:14:03.838Z,18.39
2023-03-19T21:16:32.236Z,18.76
2023-03-19T21:19:00.104Z,17.62
2023-03-19T21:21:34.527Z,16.60
2023-03-19T21:24:03.717Z,16.39
2023-03-19T21:26:30.877Z,15.32
2023-03-19T21:29:05.551Z,14.61
2023-03-19T21:31:32.233Z,14.36
2023-03-19T21:33:58.993Z,13.37
2023-03-19T21:36:25.976Z,12.69
2023-03-19T21:38:52.660Z,12.10
2023-03-19T21:41:23.645Z,12.24
2023-03-19T21:43:54.906Z,11.65
2023-03-19T21:46:26.149Z,11.06
2023-03-19T21:48:55.160Z,11.34
2023-03-19T21:51:23.552Z,11.48
2023-03-19T21:53:50.369Z,11.74
2023-03-19T21:56:24.815Z,11.86
2023-03-19T21:58:52.897Z,11.43
2023-03-19T22:01:23.512Z,11.40
2023-03-19T22:03:52.130Z,11.62
2023-03-19T22:06:19.098Z,11.86
2023-03-19T22:08:48.169Z,11.86
2023-03-19T22:11:25.122Z,11.66
2023-03-19T22:13:52.361Z,11.47
2023-03-19T22:16:23.129Z,11.56
2023-03-19T22:18:50.921Z,11.54
2023-03-19T22:21:20.859Z,11.04
2023-03-19T22:23:48.054Z,10.37
2023-03-19T22:26:29.497Z,10.46
2023-03-19T22:28:59.249Z,10.07
2023-03-19T22:31:26.114Z,9.85
2023-03-19T22:33:53.199Z,10.16
2023-03-19T22:36:20.085Z,10.02
2023-03-19T22:38:48.651Z,10.61
2023-03-19T22:41:29.132Z,9.67
2023-03-19T22:43:58.187Z,10.26
2023-03-19T22:46:26.018Z,10.46
2023-03-19T22:48:52.878Z,9.72
2023-03-19T22:51:23.821Z,9.63
2023-03-19T22:53:51.223Z,9.84
2023-03-19T22:56:18.967Z,9.45
2023-03-19T22:58:46.752Z,9.57
2023-03-19T23:01:29.640Z,9.74
2023-03-19T23:03:57.126Z,9.48
2023-03-19T23:06:30.564Z,9.27
2023-03-19T23:08:58.037Z,9.33
2023-03-19T23:11:24.775Z,8.90
2023-03-19T23:13:51.657Z,8.98
2023-03-19T23:16:24.021Z,8.62
2023-03-19T23:18:52.071Z,8.37
2023-03-19T23:21:19.839Z,7.71
2023-03-19T23:23:46.960Z,7.38
2023-03-19T23:26:29.209Z,7.43
2023-03-19T23:29:06.368Z,7.49
2023-03-19T23:31:34.347Z,7.26
2023-03-19T23:34:01.057Z,7.98
2023-03-19T23:36:27.812Z,7.68
2023-03-19T23:38:54.427Z,7.90
2023-03-19T23:41:25.045Z,7.98
2023-03-19T23:43:52.871Z,8.33
2023-03-19T23:46:21.073Z,9.20
2023-03-19T23:48:47.911Z,10.14
2023-03-19T23:51:15.920Z,9.91
2023-03-19T23:53:43.130Z,9.61
2023-03-19T23:56:28.284Z,9.82
